Time;durP1;ratioP1;P1;durP2;ratioP2;P2;SDS_P1;SDS_P2;PMS_P1;PMS_P2;Temp;Humidity;BMP_temperature;BMP_pressure;BME280_temperature;BME280_humidity;BME280_pressure;Samples;Min_cycle;Max_cycle;Signal;HPM_P1;HPM_P2
2022/01/01 00:02:03;;;;;;;8.43;7.20;;;19.60;70.90;;;;;;4996069;28;20042;-24
2022/01/01 00:04:29;;;;;;;9.60;7.47;;;19.50;70.60;;;;;;4996138;28;20045;-25
2022/01/01 00:06:54;;;;;;;9.48;7.18;;;19.50;70.50;;;;;;4995298;28;20038;-26
2022/01/01 00:09:20;;;;;;;7.68;6.72;;;19.50;70.50;;;;;;4994418;28;20049;-24
2022/01/01 00:11:45;;;;;;;9.23;7.18;;;19.50;70.50;;;;;;4989837;28;20490;-22
2022/01/01 00:14:11;;;;;;;7.25;6.55;;;19.50;70.60;;;;;;4996214;28;20061;-24
2022/01/01 00:16:37;;;;;;;8.32;6.57;;;19.60;70.40;;;;;;4996516;28;20038;-24
2022/01/01 00:19:02;;;;;;;7.78;6.53;;;19.60;70.40;;;;;;4995201;28;20042;-24
2022/01/01 00:21:28;;;;;;;8.55;6.35;;;19.50;70.30;;;;;;4996032;28;20031;-24
2022/01/01 00:23:54;;;;;;;8.77;6.72;;;19.50;70.50;;;;;;4995715;28;20046;-24
2022/01/01 00:26:19;;;;;;;6.85;6.25;;;19.50;70.70;;;;;;4996380;28;20042;-25
2022/01/01 00:28:45;;;;;;;7.72;6.32;;;19.50;70.50;;;;;;4994785;28;20084;-24
2022/01/01 00:31:11;;;;;;;6.75;6.05;;;19.50;70.50;;;;;;4994239;28;20044;-24
2022/01/01 00:33:36;;;;;;;8.55;6.32;;;19.50;70.40;;;;;;5000110;28;20489;-24
2022/01/01 00:36:02;;;;;;;6.93;5.63;;;19.60;70.60;;;;;;5004274;28;20034;-24
2022/01/01 00:38:28;;;;;;;6.60;5.90;;;19.50;70.50;;;;;;4993506;28;20077;-24
2022/01/01 00:40:53;;;;;;;6.60;6.00;;;19.50;70.30;;;;;;5010225;28;20607;-25
2022/01/01 00:43:19;;;;;;;6.78;6.07;;;19.60;70.20;;;;;;4995561;28;20050;-23
2022/01/01 00:45:45;;;;;;;6.68;5.75;;;19.60;70.20;;;;;;4995574;28;20076;-22
2022/01/01 00:48:10;;;;;;;6.43;5.80;;;19.50;70.30;;;;;;4995659;28;20045;-24
2022/01/01 00:50:36;;;;;;;6.07;5.50;;;19.50;70.30;;;;;;4995838;28;20096;-23
2022/01/01 00:53:02;;;;;;;6.32;5.80;;;19.60;70.20;;;;;;4995580;28;20038;-24
2022/01/01 00:55:28;;;;;;;6.70;6.03;;;19.50;70.20;;;;;;4995477;28;20157;-24
2022/01/01 00:57:53;;;;;;;7.05;6.38;;;19.50;70.20;;;;;;4995095;28;20046;-23
2022/01/01 01:00:19;;;;;;;6.60;5.60;;;19.60;70.20;;;;;;4995333;28;20185;-24
2022/01/01 01:02:44;;;;;;;6.25;5.53;;;19.50;70.30;;;;;;4995119;28;21210;-23
2022/01/01 01:05:10;;;;;;;6.32;5.13;;;19.60;70.20;;;;;;4998887;28;20097;-23
2022/01/01 01:07:36;;;;;;;5.75;5.25;;;19.50;70.10;;;;;;5002462;28;20125;-24
2022/01/01 01:10:02;;;;;;;6.55;5.85;;;19.50;70.20;;;;;;5001970;28;20509;-23
2022/01/01 01:12:37;;;;;;;6.00;5.40;;;19.50;70.30;;;;;;5001201;28;20046;-24
2022/01/01 01:15:04;;;;;;;5.72;5.22;;;19.50;70.10;;;;;;5000841;28;20042;-23
2022/01/01 01:17:30;;;;;;;7.93;5.30;;;19.50;70.20;;;;;;5002281;28;20042;-23
2022/01/01 01:19:55;;;;;;;5.88;5.32;;;19.50;70.10;;;;;;5001517;28;20513;-23
2022/01/01 01:22:21;;;;;;;5.68;5.10;;;19.50;70.20;;;;;;5002356;28;20095;-26
2022/01/01 01:24:46;;;;;;;4.93;4.45;;;19.50;70.30;;;;;;5000453;28;20371;-22
2022/01/01 01:27:12;;;;;;;5.38;4.97;;;19.50;70.10;;;;;;5001816;28;20039;-27
2022/01/01 01:29:42;;;;;;;5.45;4.97;;;19.50;70.20;;;;;;5002224;28;20473;-24
2022/01/01 01:32:07;;;;;;;5.63;4.97;;;19.40;70.10;;;;;;5001537;28;20042;-23
2022/01/01 01:34:33;;;;;;;5.20;4.70;;;19.50;70.10;;;;;;5000420;28;20038;-24
2022/01/01 01:36:59;;;;;;;5.30;4.90;;;19.50;70.00;;;;;;5000184;28;20099;-22
2022/01/01 01:39:24;;;;;;;4.75;4.45;;;19.40;70.00;;;;;;5001201;28;20479;-23
2022/01/01 01:41:52;;;;;;;5.10;4.70;;;19.40;70.10;;;;;;5000647;28;20053;-23
2022/01/01 01:44:32;;;;;;;4.45;4.05;;;19.40;70.30;;;;;;5002117;28;20038;-23
2022/01/01 01:47:03;;;;;;;4.78;4.47;;;19.40;70.30;;;;;;5001043;28;20045;-23
2022/01/01 01:49:29;;;;;;;5.05;4.65;;;19.40;71.10;;;;;;5001734;28;20038;-23
2022/01/01 01:51:55;;;;;;;4.60;4.30;;;19.40;70.50;;;;;;5001547;28;20053;-22
2022/01/01 01:54:20;;;;;;;4.25;3.95;;;19.30;70.50;;;;;;5017184;28;20129;-23
2022/01/01 01:56:46;;;;;;;4.75;4.30;;;19.30;70.60;;;;;;5001418;28;20039;-24
2022/01/01 01:59:13;;;;;;;4.35;4.05;;;19.30;70.70;;;;;;5002000;28;20038;-23
2022/01/01 02:01:39;;;;;;;4.85;4.45;;;19.30;70.60;;;;;;5001185;28;20568;-23
2022/01/01 02:04:04;;;;;;;4.55;4.25;;;19.30;70.60;;;;;;5000464;28;20042;-24
2022/01/01 02:06:30;;;;;;;5.18;4.78;;;19.20;70.70;;;;;;5001912;28;20042;-23
2022/01/01 02:08:56;;;;;;;4.97;4.60;;;19.30;70.70;;;;;;5000000;28;20307;-23
2022/01/01 02:11:23;;;;;;;4.22;3.90;;;19.30;70.90;;;;;;5000678;28;20106;-23
2022/01/01 02:14:03;;;;;;;4.70;4.35;;;19.20;70.90;;;;;;5001414;28;20486;-23
2022/01/01 02:16:37;;;;;;;4.22;3.92;;;19.20;70.80;;;;;;4993532;28;20046;-23
2022/01/01 02:19:02;;;;;;;;;;;19.20;70.90;;;;;;4980240;28;20039;-23
2022/01/01 02:21:28;;;;;;;4.63;4.20;;;19.20;70.90;;;;;;4998722;28;20056;-23
2022/01/01 02:23:58;;;;;;;4.40;4.10;;;19.20;70.80;;;;;;4997800;28;20042;-22
2022/01/01 02:26:29;;;;;;;4.82;4.43;;;19.20;70.80;;;;;;4998391;28;20524;-23
2022/01/01 02:28:55;;;;;;;4.07;3.78;;;19.20;70.70;;;;;;4998085;28;20125;-22
2022/01/01 02:31:21;;;;;;;4.20;3.90;;;19.20;70.80;;;;;;4998330;28;20097;-23
2022/01/01 02:33:46;;;;;;;4.35;4.05;;;19.20;70.90;;;;;;4998315;28;20074;-23
2022/01/01 02:36:12;;;;;;;4.15;3.92;;;19.20;71.00;;;;;;4998043;28;20113;-23
2022/01/01 02:38:37;;;;;;;4.43;4.13;;;19.10;71.00;;;;;;4998530;28;20397;-24
2022/01/01 02:41:03;;;;;;;4.90;4.60;;;19.10;71.10;;;;;;4997737;28;20034;-23
2022/01/01 02:43:31;;;;;;;4.50;4.20;;;19.10;70.90;;;;;;4998219;28;20042;-23
2022/01/01 02:45:56;;;;;;;4.00;3.80;;;19.20;71.00;;;;;;4993454;28;20062;-22
2022/01/01 02:48:23;;;;;;;4.93;4.60;;;19.20;70.80;;;;;;4978658;28;20043;-23
2022/01/01 02:50:50;;;;;;;4.68;4.28;;;19.10;70.80;;;;;;4978938;28;20058;-23
2022/01/01 02:53:16;;;;;;;4.72;4.43;;;19.20;70.80;;;;;;4990121;28;20038;-23
2022/01/01 02:55:42;;;;;;;3.45;3.25;;;19.10;70.90;;;;;;4998316;28;20042;-24
2022/01/01 02:58:12;;;;;;;3.17;2.97;;;19.10;70.80;;;;;;4997607;28;20034;-23
2022/01/01 03:00:41;;;;;;;3.60;3.40;;;19.10;70.90;;;;;;5009773;28;20041;-23
2022/01/01 03:03:07;;;;;;;3.70;3.40;;;19.10;70.80;;;;;;4977811;28;20391;-22
2022/01/01 03:05:33;;;;;;;4.03;3.50;;;19.10;70.90;;;;;;4979428;28;20039;-23
2022/01/01 03:07:59;;;;;;;3.45;3.25;;;19.10;71.00;;;;;;4977302;28;20075;-22
2022/01/01 03:10:24;;;;;;;3.53;3.33;;;19.10;71.00;;;;;;4978606;28;20483;-23
2022/01/01 03:12:50;;;;;;;3.53;3.22;;;19.10;71.00;;;;;;4978468;28;20050;-23
2022/01/01 03:15:16;;;;;;;3.00;2.80;;;19.10;71.10;;;;;;4978341;28;20039;-24
2022/01/01 03:17:41;;;;;;;3.97;3.67;;;19.10;71.20;;;;;;4995709;28;20095;-23
2022/01/01 03:20:09;;;;;;;3.20;3.00;;;19.00;71.20;;;;;;4996814;28;20387;-23
2022/01/01 03:22:34;;;;;;;3.42;3.22;;;19.00;71.20;;;;;;4997686;28;20060;-23
2022/01/01 03:25:00;;;;;;;3.28;3.08;;;19.00;71.20;;;;;;4997103;28;20510;-23
2022/01/01 03:27:25;;;;;;;3.67;3.38;;;19.00;71.20;;;;;;4984828;28;20062;-24
2022/01/01 03:29:51;;;;;;;3.17;2.97;;;19.00;71.20;;;;;;4976809;28;20038;-23
2022/01/01 03:32:16;;;;;;;3.50;3.30;;;19.00;71.20;;;;;;4986792;28;20046;-23
2022/01/01 03:34:42;;;;;;;2.95;2.75;;;19.00;71.00;;;;;;4997279;28;20117;-23
2022/01/01 03:37:08;;;;;;;3.05;2.85;;;19.00;71.10;;;;;;4995533;28;20042;-23
2022/01/01 03:39:33;;;;;;;3.17;2.97;;;19.00;71.10;;;;;;4997417;28;20439;-23
2022/01/01 03:41:59;;;;;;;3.35;3.15;;;19.00;71.20;;;;;;4996490;28;20487;-22
2022/01/01 03:44:25;;;;;;;3.10;2.90;;;19.00;71.10;;;;;;4997287;28;20060;-23
2022/01/01 03:46:51;;;;;;;2.63;2.42;;;19.00;71.00;;;;;;4991019;28;20034;-23
2022/01/01 03:49:17;;;;;;;3.15;2.95;;;19.00;71.00;;;;;;4977155;28;20099;-23
2022/01/01 03:51:42;;;;;;;3.28;3.05;;;19.00;71.10;;;;;;4977689;28;20444;-23
2022/01/01 03:54:08;;;;;;;3.10;2.90;;;19.00;71.10;;;;;;4978850;28;20038;-23
2022/01/01 03:56:37;;;;;;;3.17;2.97;;;19.00;70.90;;;;;;4977416;28;20035;-23
2022/01/01 03:59:02;;;;;;;3.13;2.92;;;19.00;71.70;;;;;;4975920;28;20043;-22
2022/01/01 04:01:28;;;;;;;3.33;3.03;;;19.00;71.00;;;;;;4977681;28;20038;-23
2022/01/01 04:03:53;;;;;;;2.80;2.60;;;19.00;71.00;;;;;;4983126;28;20150;-23
2022/01/01 04:06:19;;;;;;;2.88;2.67;;;19.00;71.00;;;;;;4996940;28;20046;-23
2022/01/01 04:08:45;;;;;;;3.03;2.83;;;19.00;70.90;;;;;;4995980;28;20137;-24
2022/01/01 04:11:10;;;;;;;2.50;2.40;;;19.00;70.90;;;;;;4996062;28;20053;-23
2022/01/01 04:13:36;;;;;;;2.80;2.60;;;19.00;70.90;;;;;;4996859;28;20046;-23
2022/01/01 04:16:02;;;;;;;2.20;2.10;;;19.00;70.90;;;;;;4996240;28;20038;-22
2022/01/01 04:18:37;;;;;;;2.83;2.63;;;19.00;70.90;;;;;;4996371;28;20430;-23
2022/01/01 04:21:08;;;;;;;2.72;2.55;;;19.00;70.90;;;;;;4996169;28;20053;-23
2022/01/01 04:23:33;;;;;;;3.50;3.20;;;19.00;70.90;;;;;;4994619;28;20054;-25
2022/01/01 04:25:59;;;;;;;2.50;2.40;;;19.00;71.00;;;;;;4995876;28;20042;-22
2022/01/01 04:28:24;;;;;;;2.80;2.60;;;19.00;71.00;;;;;;4995268;28;20071;-26
2022/01/01 04:30:50;;;;;;;2.67;2.58;;;19.00;70.90;;;;;;4995458;28;20089;-24
2022/01/01 04:33:16;;;;;;;2.53;2.33;;;19.00;70.90;;;;;;4994298;28;20046;-23
2022/01/01 04:35:41;;;;;;;2.40;2.30;;;19.00;70.80;;;;;;4995380;28;20073;-23
2022/01/01 04:38:16;;;;;;;2.33;2.22;;;19.00;70.80;;;;;;4994257;28;20042;-25
2022/01/01 04:40:42;;;;;;;2.50;2.40;;;19.00;70.60;;;;;;4991664;28;20038;-24
2022/01/01 04:43:07;;;;;;;2.28;2.15;;;19.00;70.80;;;;;;4993292;28;20068;-23
2022/01/01 04:45:33;;;;;;;2.42;2.33;;;18.90;70.80;;;;;;4995017;28;20406;-23
2022/01/01 04:47:58;;;;;;;2.40;2.30;;;19.00;71.00;;;;;;4995231;28;20053;-23
2022/01/01 04:50:24;;;;;;;2.30;2.20;;;19.00;70.90;;;;;;4995787;28;20092;-23
2022/01/01 04:52:51;;;;;;;2.25;2.15;;;19.00;70.80;;;;;;4996278;28;20483;-23
2022/01/01 04:55:17;;;;;;;1.80;1.70;;;19.00;70.70;;;;;;4995595;28;20046;-23
2022/01/01 04:57:42;;;;;;;2.08;1.90;;;19.00;70.70;;;;;;4996076;28;20058;-23
2022/01/01 05:00:08;;;;;;;2.10;2.00;;;18.90;70.70;;;;;;4994458;28;20057;-23
2022/01/01 05:02:34;;;;;;;2.03;1.92;;;18.90;70.70;;;;;;4992150;28;20046;-23
2022/01/01 05:05:00;;;;;;;2.40;2.17;;;19.00;70.60;;;;;;4994697;28;20754;-24
2022/01/01 05:07:25;;;;;;;2.72;2.20;;;19.00;70.70;;;;;;4994965;28;20061;-23
2022/01/01 05:09:51;;;;;;;2.55;2.05;;;18.90;70.70;;;;;;4977321;28;20038;-23
2022/01/01 05:12:17;;;;;;;2.05;1.95;;;18.90;70.70;;;;;;4975812;28;20058;-23
2022/01/01 05:14:42;;;;;;;2.20;2.10;;;18.90;70.70;;;;;;4976640;28;20046;-23
2022/01/01 05:17:08;;;;;;;2.40;1.98;;;18.90;70.60;;;;;;4975953;28;20031;-23
2022/01/01 05:19:34;;;;;;;2.05;1.95;;;18.90;70.60;;;;;;4976272;28;20045;-22
2022/01/01 05:21:59;;;;;;;1.65;1.55;;;18.90;70.60;;;;;;4975969;28;20039;-22
2022/01/01 05:24:25;;;;;;;1.70;1.60;;;18.90;70.70;;;;;;4976998;28;20047;-23
2022/01/01 05:26:50;;;;;;;1.88;1.77;;;18.90;70.60;;;;;;4977012;28;20457;-23
2022/01/01 05:29:16;;;;;;;2.00;1.70;;;18.90;70.60;;;;;;4975784;28;20101;-23
2022/01/01 05:31:42;;;;;;;1.70;1.60;;;18.90;70.50;;;;;;4976513;28;20034;-24
2022/01/01 05:34:07;;;;;;;1.92;1.83;;;18.90;70.50;;;;;;4975665;28;20054;-23
2022/01/01 05:36:34;;;;;;;2.00;1.90;;;18.90;70.60;;;;;;4976329;28;20495;-24
2022/01/01 05:38:59;;;;;;;1.80;1.70;;;18.90;70.50;;;;;;4975725;28;20043;-22
2022/01/01 05:41:25;;;;;;;1.90;1.80;;;18.90;70.50;;;;;;4987116;28;20181;-23
2022/01/01 05:43:50;;;;;;;1.80;1.70;;;18.90;70.60;;;;;;4995526;28;20046;-23
2022/01/01 05:46:16;;;;;;;1.70;1.60;;;18.80;71.30;;;;;;4993830;28;20046;-24
2022/01/01 05:48:42;;;;;;;1.70;1.60;;;18.80;70.50;;;;;;4995544;28;20042;-23
2022/01/01 05:51:08;;;;;;;1.58;1.55;;;18.80;70.40;;;;;;4994472;28;20122;-23
2022/01/01 05:53:34;;;;;;;1.60;1.50;;;18.80;70.50;;;;;;5014399;28;20074;-23
2022/01/01 05:55:59;;;;;;;1.85;1.75;;;18.80;70.40;;;;;;4998034;28;20077;-23
2022/01/01 05:58:25;;;;;;;1.77;1.67;;;18.80;70.40;;;;;;4980580;28;20046;-22
2022/01/01 06:00:50;;;;;;;1.58;1.50;;;18.80;70.40;;;;;;4992686;28;20046;-23
2022/01/01 06:03:17;;;;;;;1.77;1.67;;;18.80;70.30;;;;;;4996981;28;20049;-22
2022/01/01 06:05:43;;;;;;;1.83;1.73;;;18.80;70.40;;;;;;4998230;28;20168;-23
2022/01/01 06:08:09;;;;;;;1.90;1.80;;;18.90;70.30;;;;;;4997954;28;20093;-23
2022/01/01 06:10:35;;;;;;;1.55;1.50;;;18.80;70.20;;;;;;4997873;28;20129;-23
2022/01/01 06:13:00;;;;;;;1.40;1.40;;;18.80;70.30;;;;;;4997247;28;20042;-22
2022/01/01 06:15:26;;;;;;;1.80;1.70;;;18.80;70.30;;;;;;4996584;28;20077;-22
2022/01/01 06:17:52;;;;;;;2.00;1.90;;;18.80;70.30;;;;;;4997666;28;20054;-23
2022/01/01 06:20:17;;;;;;;1.70;1.60;;;18.80;70.30;;;;;;4995679;28;20047;-23
2022/01/01 06:22:43;;;;;;;2.03;1.92;;;18.90;71.20;;;;;;5026999;28;20069;-23
2022/01/01 06:25:09;;;;;;;1.60;1.50;;;18.80;70.30;;;;;;5016733;28;20042;-22
2022/01/01 06:27:35;;;;;;;1.70;1.60;;;18.80;70.30;;;;;;5017890;28;20068;-23
2022/01/01 06:30:00;;;;;;;1.80;1.70;;;18.80;70.40;;;;;;5017705;28;20037;-22
2022/01/01 06:32:26;;;;;;;1.60;1.50;;;18.90;70.40;;;;;;5018258;28;20061;-23
2022/01/01 06:34:51;;;;;;;1.50;1.42;;;18.80;70.40;;;;;;5018136;28;20088;-23
2022/01/01 06:37:17;;;;;;;1.42;1.42;;;18.80;70.30;;;;;;5016391;28;20049;-22
2022/01/01 06:39:43;;;;;;;1.30;1.30;;;18.80;70.30;;;;;;5018113;28;20030;-23
2022/01/01 06:42:08;;;;;;;1.63;1.52;;;18.80;70.30;;;;;;4999498;28;20101;-22
2022/01/01 06:44:34;;;;;;;1.95;1.55;;;18.80;70.30;;;;;;5005804;28;20095;-23
2022/01/01 06:47:00;;;;;;;1.77;1.67;;;18.80;70.10;;;;;;5017333;28;20050;-23
2022/01/01 06:49:25;;;;;;;1.60;1.50;;;18.80;70.20;;;;;;5017142;28;20030;-22
2022/01/01 06:51:51;;;;;;;1.65;1.55;;;18.80;70.10;;;;;;5018045;28;20121;-23
2022/01/01 06:54:16;;;;;;;1.77;1.67;;;18.80;70.10;;;;;;5017209;28;20103;-22
2022/01/01 06:56:42;;;;;;;1.40;1.40;;;18.80;70.10;;;;;;5017834;28;20049;-23
2022/01/01 06:59:09;;;;;;;1.45;1.35;;;18.80;70.20;;;;;;5016707;28;20038;-22
2022/01/01 07:01:35;;;;;;;1.42;1.33;;;18.80;70.20;;;;;;5017113;28;20508;-23
2022/01/01 07:04:01;;;;;;;1.55;1.45;;;18.80;70.10;;;;;;5016572;28;20046;-23
2022/01/01 07:06:27;;;;;;;1.45;1.45;;;18.80;69.90;;;;;;5016517;28;20061;-22
2022/01/01 07:08:52;;;;;;;1.58;1.48;;;18.80;70.00;;;;;;5017453;28;20080;-23
2022/01/01 07:11:18;;;;;;;1.63;1.52;;;18.80;70.10;;;;;;5015288;28;20041;-23
2022/01/01 07:13:43;;;;;;;1.58;1.48;;;18.80;70.00;;;;;;5017322;28;20034;-23
2022/01/01 07:16:09;;;;;;;1.30;1.30;;;18.70;70.00;;;;;;5016685;28;20042;-23
2022/01/01 07:18:34;;;;;;;1.48;1.40;;;18.70;70.10;;;;;;5017303;28;20504;-22
2022/01/01 07:21:00;;;;;;;1.60;1.50;;;18.80;70.10;;;;;;5016758;28;20045;-23
2022/01/01 07:23:26;;;;;;;1.42;1.38;;;18.70;70.10;;;;;;5016235;28;20532;-23
2022/01/01 07:25:51;;;;;;;1.40;1.30;;;18.70;69.90;;;;;;5017180;28;20479;-23
2022/01/01 07:28:17;;;;;;;1.63;1.52;;;18.80;70.00;;;;;;5016519;28;20068;-23
2022/01/01 07:30:43;;;;;;;1.55;1.45;;;18.70;69.90;;;;;;5017241;28;20042;-24
2022/01/01 07:33:12;;;;;;;1.48;1.38;;;18.80;70.00;;;;;;5016314;28;20483;-22
2022/01/01 07:35:38;;;;;;;1.40;1.30;;;18.80;69.80;;;;;;5016585;28;20029;-23
2022/01/01 07:38:04;;;;;;;1.48;1.38;;;18.80;69.90;;;;;;5016369;28;20038;-23
2022/01/01 07:40:30;;;;;;;1.65;1.30;;;18.80;69.80;;;;;;4996758;28;20045;-23
2022/01/01 07:42:56;;;;;;;1.10;1.10;;;18.70;69.80;;;;;;4997158;28;20061;-23
2022/01/01 07:45:22;;;;;;;1.45;1.35;;;18.80;69.90;;;;;;4996824;28;20042;-23
2022/01/01 07:47:47;;;;;;;1.25;1.17;;;18.70;69.80;;;;;;4996598;28;20391;-23
2022/01/01 07:50:13;;;;;;;1.40;1.30;;;18.70;69.80;;;;;;4996645;28;20045;-23
2022/01/01 07:52:39;;;;;;;1.38;1.23;;;18.70;69.80;;;;;;4995888;28;20042;-23
2022/01/01 07:55:05;;;;;;;0.90;0.90;;;18.70;69.80;;;;;;4997068;28;20096;-23
2022/01/01 07:57:30;;;;;;;0.90;0.90;;;18.70;69.80;;;;;;5008007;28;20065;-22
2022/01/01 07:59:56;;;;;;;1.20;1.10;;;18.70;70.10;;;;;;5016720;28;20048;-23
2022/01/01 08:02:22;;;;;;;1.10;1.10;;;18.70;69.80;;;;;;5015883;28;20768;-23
2022/01/01 08:04:47;;;;;;;0.90;0.90;;;18.70;69.90;;;;;;5014322;28;20038;-23
2022/01/01 08:07:13;;;;;;;1.00;1.00;;;18.70;69.80;;;;;;5015130;28;20052;-23
2022/01/01 08:09:39;;;;;;;1.25;1.25;;;18.70;69.80;;;;;;5015908;28;20046;-23
2022/01/01 08:12:06;;;;;;;1.02;1.02;;;18.70;69.70;;;;;;5015859;28;20398;-23
2022/01/01 08:14:32;;;;;;;1.20;1.20;;;18.70;69.70;;;;;;5003757;28;20490;-23
2022/01/01 08:17:04;;;;;;;1.00;1.00;;;18.70;69.70;;;;;;4996389;28;20038;-23
2022/01/01 08:19:30;;;;;;;0.90;0.90;;;18.70;69.70;;;;;;4993901;28;20038;-23
2022/01/01 08:21:56;;;;;;;1.20;1.20;;;18.70;69.70;;;;;;4995955;28;20137;-23
2022/01/01 08:24:22;;;;;;;1.10;1.10;;;18.70;69.90;;;;;;4995414;28;20050;-23
2022/01/01 08:26:48;;;;;;;1.25;1.25;;;18.70;69.90;;;;;;4995950;28;20039;-23
2022/01/01 08:29:13;;;;;;;1.55;1.48;;;18.70;69.90;;;;;;4994102;28;20050;-22
2022/01/01 08:31:39;;;;;;;0.95;0.95;;;18.70;69.80;;;;;;4995001;28;20092;-23
2022/01/01 08:34:05;;;;;;;1.30;1.20;;;18.70;69.70;;;;;;4995165;28;20402;-23
2022/01/01 08:36:30;;;;;;;0.82;0.82;;;18.70;69.80;;;;;;4993645;28;20073;-22
2022/01/01 08:38:56;;;;;;;0.98;0.98;;;18.70;69.90;;;;;;4995430;28;20050;-23
2022/01/01 08:41:21;;;;;;;0.93;0.93;;;18.70;69.80;;;;;;4993838;28;20050;-22
2022/01/01 08:43:47;;;;;;;1.00;1.00;;;18.70;69.80;;;;;;4995717;28;20042;-23
2022/01/01 08:46:13;;;;;;;0.90;0.90;;;18.70;69.80;;;;;;4995038;28;20042;-22
2022/01/01 08:48:40;;;;;;;1.10;1.10;;;18.70;69.70;;;;;;4995337;28;20046;-23
2022/01/01 08:51:19;;;;;;;1.50;1.40;;;18.70;69.70;;;;;;4995693;28;20084;-24
2022/01/01 08:53:45;;;;;;;1.00;1.00;;;18.70;69.60;;;;;;5009828;28;20089;-22
2022/01/01 08:56:11;;;;;;;1.00;1.00;;;18.70;69.70;;;;;;5012702;28;20038;-22
2022/01/01 08:58:36;;;;;;;1.20;1.20;;;18.70;69.70;;;;;;5015267;28;20513;-23
2022/01/01 09:01:03;;;;;;;0.80;0.80;;;18.70;69.60;;;;;;5015824;28;20053;-23
2022/01/01 09:03:28;;;;;;;1.00;1.00;;;18.70;69.60;;;;;;5014778;28;20029;-23
2022/01/01 09:05:54;;;;;;;1.00;1.00;;;18.70;69.60;;;;;;5015711;28;20405;-23
2022/01/01 09:08:19;;;;;;;1.00;0.90;;;18.70;69.70;;;;;;5014921;28;20054;-23
2022/01/01 09:10:45;;;;;;;1.00;1.00;;;18.60;69.60;;;;;;5015496;28;20129;-22
2022/01/01 09:13:10;;;;;;;0.90;0.90;;;18.70;69.70;;;;;;5014200;28;20053;-22
2022/01/01 09:15:36;;;;;;;0.90;0.90;;;18.70;69.60;;;;;;5015513;28;20052;-22
2022/01/01 09:18:02;;;;;;;0.90;0.90;;;18.70;69.70;;;;;;5015082;28;20050;-23
2022/01/01 09:20:27;;;;;;;0.90;0.90;;;18.70;69.60;;;;;;5012634;28;20074;-23
2022/01/01 09:22:53;;;;;;;1.00;1.00;;;18.70;69.50;;;;;;5015458;28;20060;-23
2022/01/01 09:25:18;;;;;;;0.90;0.90;;;18.70;69.60;;;;;;5013845;28;20125;-23
2022/01/01 09:27:44;;;;;;;0.90;0.90;;;18.70;69.60;;;;;;5019343;28;20041;-22
2022/01/01 09:30:10;;;;;;;0.95;0.95;;;18.70;69.80;;;;;;5019497;28;20097;-23
2022/01/01 09:32:36;;;;;;;1.00;1.00;;;18.70;69.70;;;;;;5018117;28;20121;-23
2022/01/01 09:35:02;;;;;;;0.70;0.70;;;18.70;69.60;;;;;;5018402;28;20445;-23
2022/01/01 09:37:29;;;;;;;1.00;1.00;;;18.70;69.60;;;;;;5018656;28;20030;-22
2022/01/01 09:39:56;;;;;;;1.10;1.10;;;18.70;69.60;;;;;;5019243;28;20084;-22
2022/01/01 09:42:22;;;;;;;1.00;1.00;;;18.70;69.60;;;;;;5018462;28;20041;-23
2022/01/01 09:44:47;;;;;;;0.93;0.93;;;18.70;69.60;;;;;;5017817;28;20056;-23
2022/01/01 09:47:13;;;;;;;0.80;0.80;;;18.70;69.40;;;;;;5017635;28;20101;-22
2022/01/01 09:49:40;;;;;;;0.98;0.98;;;18.70;69.40;;;;;;5018874;28;20046;-22
2022/01/01 09:52:06;;;;;;;0.93;0.93;;;18.70;69.30;;;;;;5017664;28;20029;-23
2022/01/01 09:54:31;;;;;;;0.90;0.90;;;18.80;69.40;;;;;;5017137;28;20037;-23
2022/01/01 09:56:57;;;;;;;0.80;0.80;;;18.70;69.30;;;;;;5009602;28;20501;-23
2022/01/01 09:59:23;;;;;;;1.00;1.00;;;18.80;69.40;;;;;;5016624;28;20049;-22
2022/01/01 10:01:48;;;;;;;1.13;1.02;;;18.70;69.20;;;;;;5019432;28;20478;-24
2022/01/01 10:04:14;;;;;;;1.40;0.95;;;18.80;69.50;;;;;;5032789;28;20039;-22
2022/01/01 10:06:40;;;;;;;0.80;0.80;;;18.70;69.50;;;;;;4999245;28;20501;-23
2022/01/01 10:09:08;;;;;;;1.17;0.85;;;18.80;69.50;;;;;;4998890;28;20039;-23
2022/01/01 10:11:34;;;;;;;1.05;0.95;;;18.90;70.30;;;;;;4997348;28;20045;-23
2022/01/01 10:14:05;;;;;;;1.20;0.95;;;18.80;69.90;;;;;;5018631;28;20038;-23
2022/01/01 10:16:31;;;;;;;1.80;1.00;;;18.80;69.70;;;;;;5017840;28;20042;-23
2022/01/01 10:18:57;;;;;;;3.58;1.20;;;18.80;69.50;;;;;;5033458;28;20038;-23
2022/01/01 10:21:26;;;;;;;1.17;1.17;;;18.80;69.50;;;;;;5007267;28;20523;-24
2022/01/01 10:23:55;;;;;;;1.83;1.15;;;18.80;69.60;;;;;;5012061;28;20128;-23
2022/01/01 10:29:16;;;;;;;2.38;1.10;;;19.00;69.20;;;;;;5017015;28;20049;-23
2022/01/01 10:32:09;;;;;;;3.38;1.17;;;19.00;69.10;;;;;;5013213;28;20038;-23
2022/01/01 10:34:36;;;;;;;1.20;1.10;;;19.00;69.10;;;;;;5016576;28;20042;-23
2022/01/01 10:37:05;;;;;;;2.92;1.00;;;19.00;69.10;;;;;;4998444;28;20053;-23
2022/01/01 10:39:30;;;;;;;4.07;1.58;;;19.00;69.30;;;;;;4997635;28;20041;-23
2022/01/01 10:42:00;;;;;;;6.05;2.10;;;19.00;69.80;;;;;;4997562;28;20077;-23
2022/01/01 10:44:31;;;;;;;5.70;3.00;;;19.00;70.50;;;;;;4998289;28;20042;-23
2022/01/01 10:46:57;;;;;;;5.32;2.20;;;19.00;70.50;;;;;;4993198;28;20042;-23
2022/01/01 10:49:50;;;;;;;6.60;2.63;;;19.00;70.20;;;;;;4995960;28;20564;-23
2022/01/01 10:52:20;;;;;;;5.07;2.70;;;19.10;70.40;;;;;;4997594;28;20046;-23
2022/01/01 10:54:53;;;;;;;4.70;2.30;;;19.10;70.30;;;;;;4996843;28;20133;-23
2022/01/01 10:57:32;;;;;;;3.15;1.88;;;19.10;70.50;;;;;;4996171;28;20046;-23
2022/01/01 11:00:20;;;;;;;3.22;2.15;;;19.10;70.60;;;;;;4997381;28;20039;-23
2022/01/01 11:02:53;;;;;;;6.30;2.10;;;19.20;70.40;;;;;;4996876;28;20096;-23
2022/01/01 11:05:34;;;;;;;3.15;1.90;;;19.20;70.20;;;;;;5009075;28;20515;-23
2022/01/01 11:08:01;;;;;;;5.50;1.80;;;19.20;70.30;;;;;;5016283;28;20080;-23
2022/01/01 11:10:27;;;;;;;1.95;1.48;;;19.20;70.40;;;;;;5018220;28;20072;-24
2022/01/01 11:12:53;;;;;;;3.38;1.65;;;19.20;70.30;;;;;;5016688;28;20054;-24
2022/01/01 11:15:19;;;;;;;2.55;1.50;;;19.20;70.20;;;;;;5005116;28;20671;-23
2022/01/01 11:17:46;;;;;;;2.20;1.40;;;19.20;70.30;;;;;;4645368;28;9999693;-24
2022/01/01 11:20:12;;;;;;;1.70;1.50;;;19.20;70.40;;;;;;4985416;28;20403;-23
2022/01/01 11:22:37;;;;;;;1.30;1.02;;;19.20;70.30;;;;;;4991189;28;20038;-23
2022/01/01 11:25:04;;;;;;;2.30;1.60;;;19.30;70.40;;;;;;4994027;28;20041;-24
2022/01/01 11:27:29;;;;;;;1.58;1.45;;;19.30;70.10;;;;;;4995089;28;20062;-24
2022/01/01 11:29:56;;;;;;;2.85;1.25;;;19.30;70.00;;;;;;4994638;28;20035;-23
2022/01/01 11:32:48;;;;;;;4.38;1.20;;;19.30;70.50;;;;;;4991845;28;20042;-23
2022/01/01 11:35:22;;;;;;;4.10;1.55;;;19.30;70.40;;;;;;4991284;28;20573;-23
2022/01/01 11:38:00;;;;;;;2.13;1.35;;;19.30;70.10;;;;;;4993255;28;20042;-24
2022/01/01 11:40:27;;;;;;;1.52;1.33;;;19.30;69.90;;;;;;4994683;28;20518;-24
2022/01/01 11:42:53;;;;;;;3.15;1.23;;;19.30;70.10;;;;;;4995078;28;20145;-23
2022/01/01 11:45:44;;;;;;;1.65;1.40;;;19.40;70.00;;;;;;4993053;28;20078;-24
2022/01/01 11:48:29;;;;;;;1.40;1.15;;;19.30;70.10;;;;;;4993109;28;20039;-23
2022/01/01 11:50:55;;;;;;;2.95;1.33;;;19.30;70.00;;;;;;4985326;28;20030;-22
2022/01/01 11:53:28;;;;;;;3.35;1.50;;;19.40;70.10;;;;;;4992978;28;20042;-23
2022/01/01 11:56:09;;;;;;;3.55;1.85;;;19.40;70.20;;;;;;4993730;28;20034;-23
2022/01/01 11:58:52;;;;;;;2.30;2.10;;;19.40;71.20;;;;;;5010202;28;20049;-24
2022/01/01 12:01:19;;;;;;;2.33;1.87;;;19.40;71.40;;;;;;4981352;28;20141;-24
2022/01/01 12:03:52;;;;;;;2.10;1.90;;;19.30;71.10;;;;;;4991495;28;20384;-23
2022/01/01 12:06:18;;;;;;;3.45;2.28;;;19.40;71.10;;;;;;4988531;28;20050;-24
2022/01/01 12:08:46;;;;;;;5.00;1.60;;;19.40;71.60;;;;;;5001521;28;20046;-23
2022/01/01 12:11:31;;;;;;;2.20;2.00;;;19.40;71.10;;;;;;4992032;28;20041;-24
2022/01/01 12:13:58;;;;;;;1.75;1.65;;;19.40;71.50;;;;;;4990068;28;20380;-22
2022/01/01 12:16:24;;;;;;;3.08;1.80;;;19.40;71.50;;;;;;4992306;28;20054;-23
2022/01/01 12:18:49;;;;;;;2.53;1.75;;;19.40;71.50;;;;;;4992200;28;20046;-23
2022/01/01 12:21:22;;;;;;;2.10;1.90;;;19.40;71.30;;;;;;5005446;28;20506;-23
2022/01/01 12:23:48;;;;;;;2.70;1.30;;;19.40;71.60;;;;;;5000111;28;20049;-23
2022/01/01 12:26:14;;;;;;;1.80;1.70;;;19.40;71.80;;;;;;4991294;28;20687;-23
2022/01/01 12:28:42;;;;;;;5.07;1.85;;;19.40;71.70;;;;;;4992856;28;20500;-24
2022/01/01 12:31:35;;;;;;;2.22;1.80;;;19.50;72.40;;;;;;4991377;28;20662;-23
2022/01/01 12:34:10;;;;;;;2.92;1.70;;;19.40;71.90;;;;;;4985945;28;20047;-23
2022/01/01 12:36:36;;;;;;;2.65;1.60;;;19.40;71.90;;;;;;4991243;28;20054;-24
2022/01/01 12:39:04;;;;;;;2.10;1.50;;;19.40;71.90;;;;;;4988134;28;20049;-23
2022/01/01 12:41:39;;;;;;;1.90;1.80;;;19.40;72.40;;;;;;5003731;28;20068;-23
2022/01/01 12:44:09;;;;;;;2.33;1.40;;;19.40;72.50;;;;;;5003674;28;20084;-24
2022/01/01 12:46:56;;;;;;;3.15;1.55;;;19.40;72.40;;;;;;5003835;28;20067;-23
2022/01/01 12:49:22;;;;;;;1.55;1.40;;;19.40;72.60;;;;;;5001962;28;20045;-23
2022/01/01 12:51:51;;;;;;;3.28;1.20;;;19.50;72.10;;;;;;4997952;28;20096;-23